sensor_id;sensor_type;location;lat;lon;timestamp;temperature;humidity
75931;DHT22;64609;47.052;15.462;2023-07-30T00:02:05;23.20;75.70
75931;DHT22;64609;47.052;15.462;2023-07-30T00:04:31;23.20;76.00
75931;DHT22;64609;47.052;15.462;2023-07-30T00:06:56;23.20;76.10
75931;DHT22;64609;47.052;15.462;2023-07-30T00:09:22;23.20;76.00
75931;DHT22;64609;47.052;15.462;2023-07-30T00:11:47;23.20;75.60
75931;DHT22;64609;47.052;15.462;2023-07-30T00:14:13;23.20;75.70
75931;DHT22;64609;47.052;15.462;2023-07-30T00:16:39;23.20;75.90
75931;DHT22;64609;47.052;15.462;2023-07-30T00:19:04;23.20;76.30
75931;DHT22;64609;47.052;15.462;2023-07-30T00:21:30;23.20;76.30
75931;DHT22;64609;47.052;15.462;2023-07-30T00:23:55;23.10;76.30
75931;DHT22;64609;47.052;15.462;2023-07-30T00:26:21;23.10;76.30
75931;DHT22;64609;47.052;15.462;2023-07-30T00:28:47;23.10;76.30
75931;DHT22;64609;47.052;15.462;2023-07-30T00:31:12;23.10;76.50
75931;DHT22;64609;47.052;15.462;2023-07-30T00:33:38;23.10;77.70
75931;DHT22;64609;47.052;15.462;2023-07-30T00:36:04;23.10;76.80
75931;DHT22;64609;47.052;15.462;2023-07-30T00:38:29;23.10;76.70
75931;DHT22;64609;47.052;15.462;2023-07-30T00:40:55;23.10;76.90
75931;DHT22;64609;47.052;15.462;2023-07-30T00:43:21;23.00;76.80
75931;DHT22;64609;47.052;15.462;2023-07-30T00:45:46;23.00;76.70
75931;DHT22;64609;47.052;15.462;2023-07-30T00:48:13;23.00;76.60
75931;DHT22;64609;47.052;15.462;2023-07-30T00:50:40;23.00;76.80
75931;DHT22;64609;47.052;15.462;2023-07-30T00:53:07;23.00;76.90
75931;DHT22;64609;47.052;15.462;2023-07-30T00:55:34;23.00;77.10
75931;DHT22;64609;47.052;15.462;2023-07-30T00:58:00;22.90;77.30
75931;DHT22;64609;47.052;15.462;2023-07-30T01:00:26;22.90;77.40
75931;DHT22;64609;47.052;15.462;2023-07-30T01:02:54;23.00;77.30
75931;DHT22;64609;47.052;15.462;2023-07-30T01:05:19;23.00;77.50
75931;DHT22;64609;47.052;15.462;2023-07-30T01:07:45;23.00;77.60
75931;DHT22;64609;47.052;15.462;2023-07-30T01:10:11;22.90;77.60
75931;DHT22;64609;47.052;15.462;2023-07-30T01:12:37;22.90;77.70
75931;DHT22;64609;47.052;15.462;2023-07-30T01:15:04;22.90;77.90
75931;DHT22;64609;47.052;15.462;2023-07-30T01:17:31;22.90;78.00
75931;DHT22;64609;47.052;15.462;2023-07-30T01:19:57;22.90;77.90
75931;DHT22;64609;47.052;15.462;2023-07-30T01:22:23;22.90;77.80
75931;DHT22;64609;47.052;15.462;2023-07-30T01:24:49;22.90;77.90
75931;DHT22;64609;47.052;15.462;2023-07-30T01:27:26;22.90;78.30
75931;DHT22;64609;47.052;15.462;2023-07-30T01:29:57;23.00;78.70
75931;DHT22;64609;47.052;15.462;2023-07-30T01:32:27;23.00;78.40
75931;DHT22;64609;47.052;15.462;2023-07-30T01:34:55;23.00;78.40
75931;DHT22;64609;47.052;15.462;2023-07-30T01:37:22;23.00;78.50
75931;DHT22;64609;47.052;15.462;2023-07-30T01:39:48;23.00;78.40
75931;DHT22;64609;47.052;15.462;2023-07-30T01:42:15;23.00;78.30
75931;DHT22;64609;47.052;15.462;2023-07-30T01:44:41;23.00;78.30
75931;DHT22;64609;47.052;15.462;2023-07-30T01:47:07;23.00;78.20
75931;DHT22;64609;47.052;15.462;2023-07-30T01:49:32;23.00;78.30
75931;DHT22;64609;47.052;15.462;2023-07-30T01:51:58;22.90;78.30
75931;DHT22;64609;47.052;15.462;2023-07-30T01:54:24;22.90;78.50
75931;DHT22;64609;47.052;15.462;2023-07-30T01:56:50;22.90;78.60
75931;DHT22;64609;47.052;15.462;2023-07-30T01:59:15;22.90;78.50
75931;DHT22;64609;47.052;15.462;2023-07-30T02:01:42;22.90;78.30
75931;DHT22;64609;47.052;15.462;2023-07-30T02:04:08;22.90;78.00
75931;DHT22;64609;47.052;15.462;2023-07-30T02:06:33;22.90;78.10
75931;DHT22;64609;47.052;15.462;2023-07-30T02:08:59;22.90;78.20
75931;DHT22;64609;47.052;15.462;2023-07-30T02:11:25;22.90;78.20
75931;DHT22;64609;47.052;15.462;2023-07-30T02:13:50;23.00;78.00
75931;DHT22;64609;47.052;15.462;2023-07-30T02:16:16;22.90;78.10
75931;DHT22;64609;47.052;15.462;2023-07-30T02:18:41;22.90;77.90
75931;DHT22;64609;47.052;15.462;2023-07-30T02:21:07;22.90;77.90
75931;DHT22;64609;47.052;15.462;2023-07-30T02:23:33;22.90;78.00
75931;DHT22;64609;47.052;15.462;2023-07-30T02:25:58;22.90;77.90
75931;DHT22;64609;47.052;15.462;2023-07-30T02:28:24;22.90;77.80
75931;DHT22;64609;47.052;15.462;2023-07-30T02:30:50;22.90;77.70
75931;DHT22;64609;47.052;15.462;2023-07-30T02:33:15;22.90;77.90
75931;DHT22;64609;47.052;15.462;2023-07-30T02:35:43;22.90;77.90
75931;DHT22;64609;47.052;15.462;2023-07-30T02:38:08;22.80;77.70
75931;DHT22;64609;47.052;15.462;2023-07-30T02:40:34;22.80;77.50
75931;DHT22;64609;47.052;15.462;2023-07-30T02:43:00;22.80;77.50
75931;DHT22;64609;47.052;15.462;2023-07-30T02:45:25;22.80;77.30
75931;DHT22;64609;47.052;15.462;2023-07-30T02:47:51;22.80;77.40
75931;DHT22;64609;47.052;15.462;2023-07-30T02:50:17;22.90;77.30
75931;DHT22;64609;47.052;15.462;2023-07-30T02:52:42;22.80;77.20
75931;DHT22;64609;47.052;15.462;2023-07-30T02:55:08;22.80;77.20
75931;DHT22;64609;47.052;15.462;2023-07-30T02:57:34;22.80;77.10
75931;DHT22;64609;47.052;15.462;2023-07-30T02:59:59;22.80;77.10
75931;DHT22;64609;47.052;15.462;2023-07-30T03:02:25;22.80;77.40
75931;DHT22;64609;47.052;15.462;2023-07-30T03:04:50;22.80;77.90
75931;DHT22;64609;47.052;15.462;2023-07-30T03:07:16;22.80;77.80
75931;DHT22;64609;47.052;15.462;2023-07-30T03:09:43;22.80;77.70
75931;DHT22;64609;47.052;15.462;2023-07-30T03:12:09;22.80;78.20
75931;DHT22;64609;47.052;15.462;2023-07-30T03:14:34;22.80;78.20
75931;DHT22;64609;47.052;15.462;2023-07-30T03:17:00;22.80;78.10
75931;DHT22;64609;47.052;15.462;2023-07-30T03:19:26;22.80;77.90
75931;DHT22;64609;47.052;15.462;2023-07-30T03:21:51;22.80;78.00
75931;DHT22;64609;47.052;15.462;2023-07-30T03:24:17;22.70;78.00
75931;DHT22;64609;47.052;15.462;2023-07-30T03:26:43;22.80;78.30
75931;DHT22;64609;47.052;15.462;2023-07-30T03:29:09;22.70;78.40
75931;DHT22;64609;47.052;15.462;2023-07-30T03:31:35;22.70;78.50
75931;DHT22;64609;47.052;15.462;2023-07-30T03:34:00;22.80;78.80
75931;DHT22;64609;47.052;15.462;2023-07-30T03:36:26;22.80;78.80
75931;DHT22;64609;47.052;15.462;2023-07-30T03:38:52;22.80;79.00
75931;DHT22;64609;47.052;15.462;2023-07-30T03:41:17;22.80;78.80
75931;DHT22;64609;47.052;15.462;2023-07-30T03:43:43;22.80;78.70
75931;DHT22;64609;47.052;15.462;2023-07-30T03:46:09;22.80;78.80
75931;DHT22;64609;47.052;15.462;2023-07-30T03:48:34;22.80;78.80
75931;DHT22;64609;47.052;15.462;2023-07-30T03:51:00;22.80;78.80
75931;DHT22;64609;47.052;15.462;2023-07-30T03:53:25;22.80;78.90
75931;DHT22;64609;47.052;15.462;2023-07-30T03:55:51;22.80;78.90
75931;DHT22;64609;47.052;15.462;2023-07-30T03:58:17;22.80;78.90
75931;DHT22;64609;47.052;15.462;2023-07-30T04:00:42;22.80;78.80
75931;DHT22;64609;47.052;15.462;2023-07-30T04:03:08;22.80;78.80
75931;DHT22;64609;47.052;15.462;2023-07-30T04:05:33;22.80;78.80
75931;DHT22;64609;47.052;15.462;2023-07-30T04:07:59;22.80;78.40
75931;DHT22;64609;47.052;15.462;2023-07-30T04:10:25;22.80;78.40
75931;DHT22;64609;47.052;15.462;2023-07-30T04:12:51;22.80;78.10
75931;DHT22;64609;47.052;15.462;2023-07-30T04:15:16;22.80;77.90
75931;DHT22;64609;47.052;15.462;2023-07-30T04:17:42;22.80;77.70
75931;DHT22;64609;47.052;15.462;2023-07-30T04:20:09;22.80;77.90
75931;DHT22;64609;47.052;15.462;2023-07-30T04:22:35;22.80;77.90
75931;DHT22;64609;47.052;15.462;2023-07-30T04:25:01;22.80;77.70
75931;DHT22;64609;47.052;15.462;2023-07-30T04:27:27;22.80;77.60
75931;DHT22;64609;47.052;15.462;2023-07-30T04:29:52;22.80;77.70
75931;DHT22;64609;47.052;15.462;2023-07-30T04:32:18;22.80;77.50
75931;DHT22;64609;47.052;15.462;2023-07-30T04:34:44;22.80;77.30
75931;DHT22;64609;47.052;15.462;2023-07-30T04:37:09;22.70;77.40
75931;DHT22;64609;47.052;15.462;2023-07-30T04:39:36;22.70;77.70
75931;DHT22;64609;47.052;15.462;2023-07-30T04:42:02;22.70;77.70
75931;DHT22;64609;47.052;15.462;2023-07-30T04:44:28;22.70;77.50
75931;DHT22;64609;47.052;15.462;2023-07-30T04:46:54;22.70;77.50
75931;DHT22;64609;47.052;15.462;2023-07-30T04:49:19;22.70;77.80
75931;DHT22;64609;47.052;15.462;2023-07-30T04:51:45;22.70;78.50
75931;DHT22;64609;47.052;15.462;2023-07-30T04:54:10;22.70;77.80
75931;DHT22;64609;47.052;15.462;2023-07-30T04:56:36;22.70;78.00
75931;DHT22;64609;47.052;15.462;2023-07-30T04:59:02;22.70;77.90
75931;DHT22;64609;47.052;15.462;2023-07-30T05:01:28;22.70;78.00
75931;DHT22;64609;47.052;15.462;2023-07-30T05:03:54;22.70;77.80
75931;DHT22;64609;47.052;15.462;2023-07-30T05:06:20;22.60;77.70
75931;DHT22;64609;47.052;15.462;2023-07-30T05:08:46;22.70;77.70
75931;DHT22;64609;47.052;15.462;2023-07-30T05:11:11;22.70;77.90
75931;DHT22;64609;47.052;15.462;2023-07-30T05:13:37;22.70;78.10
75931;DHT22;64609;47.052;15.462;2023-07-30T05:16:03;22.70;78.30
75931;DHT22;64609;47.052;15.462;2023-07-30T05:18:29;22.70;78.10
75931;DHT22;64609;47.052;15.462;2023-07-30T05:20:55;22.70;77.90
75931;DHT22;64609;47.052;15.462;2023-07-30T05:23:20;22.70;78.30
75931;DHT22;64609;47.052;15.462;2023-07-30T05:25:46;22.80;78.30
75931;DHT22;64609;47.052;15.462;2023-07-30T05:28:12;22.70;78.10
75931;DHT22;64609;47.052;15.462;2023-07-30T05:30:38;22.80;78.00
75931;DHT22;64609;47.052;15.462;2023-07-30T05:33:03;22.70;77.80
75931;DHT22;64609;47.052;15.462;2023-07-30T05:35:29;22.80;77.60
75931;DHT22;64609;47.052;15.462;2023-07-30T05:37:55;22.80;77.60
75931;DHT22;64609;47.052;15.462;2023-07-30T05:40:21;22.80;77.40
75931;DHT22;64609;47.052;15.462;2023-07-30T05:42:47;22.80;77.20
75931;DHT22;64609;47.052;15.462;2023-07-30T05:45:12;22.80;77.00
75931;DHT22;64609;47.052;15.462;2023-07-30T05:47:38;22.80;77.40
75931;DHT22;64609;47.052;15.462;2023-07-30T05:50:04;22.80;77.70
75931;DHT22;64609;47.052;15.462;2023-07-30T05:52:30;22.80;77.70
75931;DHT22;64609;47.052;15.462;2023-07-30T05:54:56;22.80;77.30
75931;DHT22;64609;47.052;15.462;2023-07-30T05:57:21;22.80;77.10
75931;DHT22;64609;47.052;15.462;2023-07-30T05:59:47;22.80;77.10
75931;DHT22;64609;47.052;15.462;2023-07-30T06:02:13;22.80;77.50
75931;DHT22;64609;47.052;15.462;2023-07-30T06:04:38;22.90;77.30
75931;DHT22;64609;47.052;15.462;2023-07-30T06:07:04;22.90;77.30
75931;DHT22;64609;47.052;15.462;2023-07-30T06:09:30;22.90;77.40
75931;DHT22;64609;47.052;15.462;2023-07-30T06:11:57;22.90;77.50
75931;DHT22;64609;47.052;15.462;2023-07-30T06:14:23;22.90;77.10
75931;DHT22;64609;47.052;15.462;2023-07-30T06:16:49;23.00;77.30
75931;DHT22;64609;47.052;15.462;2023-07-30T06:19:15;23.00;77.50
75931;DHT22;64609;47.052;15.462;2023-07-30T06:21:40;23.00;77.60
75931;DHT22;64609;47.052;15.462;2023-07-30T06:24:06;23.00;77.70
75931;DHT22;64609;47.052;15.462;2023-07-30T06:26:32;23.00;77.70
75931;DHT22;64609;47.052;15.462;2023-07-30T06:28:58;23.00;77.90
75931;DHT22;64609;47.052;15.462;2023-07-30T06:31:23;23.00;77.90
75931;DHT22;64609;47.052;15.462;2023-07-30T06:33:49;23.00;77.80
75931;DHT22;64609;47.052;15.462;2023-07-30T06:36:15;23.00;77.80
75931;DHT22;64609;47.052;15.462;2023-07-30T06:38:40;23.00;78.00
75931;DHT22;64609;47.052;15.462;2023-07-30T06:41:06;22.90;78.20
75931;DHT22;64609;47.052;15.462;2023-07-30T06:43:32;22.90;78.50
75931;DHT22;64609;47.052;15.462;2023-07-30T06:45:57;22.90;78.10
75931;DHT22;64609;47.052;15.462;2023-07-30T06:48:23;22.90;78.20
75931;DHT22;64609;47.052;15.462;2023-07-30T06:50:49;23.00;78.40
75931;DHT22;64609;47.052;15.462;2023-07-30T06:53:14;23.00;78.10
75931;DHT22;64609;47.052;15.462;2023-07-30T06:55:40;23.10;77.90
75931;DHT22;64609;47.052;15.462;2023-07-30T06:58:05;23.00;77.60
75931;DHT22;64609;47.052;15.462;2023-07-30T07:00:31;23.00;77.50
75931;DHT22;64609;47.052;15.462;2023-07-30T07:02:57;23.10;77.80
75931;DHT22;64609;47.052;15.462;2023-07-30T07:05:22;23.10;77.80
75931;DHT22;64609;47.052;15.462;2023-07-30T07:07:48;23.10;77.60
75931;DHT22;64609;47.052;15.462;2023-07-30T07:10:14;23.10;77.40
75931;DHT22;64609;47.052;15.462;2023-07-30T07:12:40;23.10;77.20
75931;DHT22;64609;47.052;15.462;2023-07-30T07:15:06;23.20;78.50
75931;DHT22;64609;47.052;15.462;2023-07-30T07:17:32;23.30;77.40
75931;DHT22;64609;47.052;15.462;2023-07-30T07:19:58;23.40;77.00
75931;DHT22;64609;47.052;15.462;2023-07-30T07:22:24;23.50;76.30
75931;DHT22;64609;47.052;15.462;2023-07-30T07:24:51;23.70;76.30
75931;DHT22;64609;47.052;15.462;2023-07-30T07:27:18;23.80;76.00
75931;DHT22;64609;47.052;15.462;2023-07-30T07:29:44;23.90;76.70
75931;DHT22;64609;47.052;15.462;2023-07-30T07:32:09;24.00;75.40
75931;DHT22;64609;47.052;15.462;2023-07-30T07:34:35;24.10;75.30
75931;DHT22;64609;47.052;15.462;2023-07-30T07:37:02;24.20;74.90
75931;DHT22;64609;47.052;15.462;2023-07-30T07:39:28;24.40;74.80
75931;DHT22;64609;47.052;15.462;2023-07-30T07:41:54;24.50;74.30
75931;DHT22;64609;47.052;15.462;2023-07-30T07:44:20;24.60;74.20
75931;DHT22;64609;47.052;15.462;2023-07-30T07:46:47;24.60;74.00
75931;DHT22;64609;47.052;15.462;2023-07-30T07:49:13;24.60;73.30
75931;DHT22;64609;47.052;15.462;2023-07-30T07:51:38;24.70;73.20
75931;DHT22;64609;47.052;15.462;2023-07-30T07:54:04;24.70;73.60
75931;DHT22;64609;47.052;15.462;2023-07-30T07:56:30;24.80;74.20
75931;DHT22;64609;47.052;15.462;2023-07-30T07:58:57;24.90;73.70
75931;DHT22;64609;47.052;15.462;2023-07-30T08:01:22;25.10;73.70
75931;DHT22;64609;47.052;15.462;2023-07-30T08:03:48;25.20;73.10
75931;DHT22;64609;47.052;15.462;2023-07-30T08:06:14;25.40;73.50
75931;DHT22;64609;47.052;15.462;2023-07-30T08:08:39;25.60;72.10
75931;DHT22;64609;47.052;15.462;2023-07-30T08:11:08;25.70;70.20
75931;DHT22;64609;47.052;15.462;2023-07-30T08:13:35;25.70;69.40
75931;DHT22;64609;47.052;15.462;2023-07-30T08:16:01;25.70;69.40
75931;DHT22;64609;47.052;15.462;2023-07-30T08:18:27;25.60;70.10
75931;DHT22;64609;47.052;15.462;2023-07-30T08:20:53;25.60;70.50
75931;DHT22;64609;47.052;15.462;2023-07-30T08:23:19;25.60;70.40
75931;DHT22;64609;47.052;15.462;2023-07-30T08:25:45;25.60;69.90
75931;DHT22;64609;47.052;15.462;2023-07-30T08:28:11;25.70;69.80
75931;DHT22;64609;47.052;15.462;2023-07-30T08:30:36;25.80;69.90
75931;DHT22;64609;47.052;15.462;2023-07-30T08:33:02;25.90;68.90
75931;DHT22;64609;47.052;15.462;2023-07-30T08:35:28;26.00;69.60
75931;DHT22;64609;47.052;15.462;2023-07-30T08:37:54;26.20;68.50
75931;DHT22;64609;47.052;15.462;2023-07-30T08:40:24;26.30;68.10
75931;DHT22;64609;47.052;15.462;2023-07-30T08:42:51;26.40;67.30
75931;DHT22;64609;47.052;15.462;2023-07-30T08:45:17;26.50;67.40
75931;DHT22;64609;47.052;15.462;2023-07-30T08:47:43;26.60;67.70
75931;DHT22;64609;47.052;15.462;2023-07-30T08:50:09;26.80;67.10
75931;DHT22;64609;47.052;15.462;2023-07-30T08:52:35;27.10;66.80
75931;DHT22;64609;47.052;15.462;2023-07-30T08:55:02;27.40;66.30
75931;DHT22;64609;47.052;15.462;2023-07-30T08:57:32;27.90;64.80
75931;DHT22;64609;47.052;15.462;2023-07-30T09:00:05;28.80;62.50
75931;DHT22;64609;47.052;15.462;2023-07-30T09:02:38;30.10;60.20
